Time;durP1;ratioP1;P1;durP2;ratioP2;P2;SDS_P1;SDS_P2;PMS_P1;PMS_P2;Temp;Humidity;BMP_temperature;BMP_pressure;BME280_temperature;BME280_humidity;BME280_pressure;Samples;Min_cycle;Max_cycle;Signal;HPM_P1;HPM_P2
2021/08/09 00:00:35;;;;;;;17.15;8.57;;;666.30;1689.60;;;;;;5153300;27;20034;-80
2021/08/09 00:03:01;;;;;;;20.77;9.75;;;666.30;1664.00;;;;;;5153472;27;20022;-78
2021/08/09 00:05:27;;;;;;;16.33;9.82;;;666.50;1638.40;;;;;;5153584;27;20094;-75
2021/08/09 00:07:52;;;;;;;18.17;9.93;;;691.20;1638.40;;;;;;5153584;27;20448;-75
2021/08/09 00:10:19;;;;;;;16.58;9.55;;;691.20;1638.40;;;;;;5153577;27;20017;-77
2021/08/09 00:12:44;;;;;;;17.08;9.43;;;691.20;1638.40;;;;;;5153365;27;20475;-76
2021/08/09 00:15:11;;;;;;;21.50;10.63;;;691.20;1638.40;;;;;;5135476;27;20474;-77
2021/08/09 00:17:37;;;;;;;18.67;9.80;;;666.20;1689.60;;;;;;5156585;27;20038;-77
2021/08/09 00:20:07;;;;;;;16.58;10.45;;;665.90;1689.60;;;;;;5156443;27;20102;-77
2021/08/09 00:22:35;;;;;;;19.52;10.32;;;665.90;1689.60;;;;;;5148018;27;20041;-74
2021/08/09 00:25:00;;;;;;;17.42;11.10;;;665.70;1740.80;;;;;;5136569;27;20483;-84
2021/08/09 00:27:26;;;;;;;22.02;10.68;;;640.90;1715.20;;;;;;5137065;27;20023;-86
2021/08/09 00:29:52;;;;;;;21.02;11.30;;;640.90;1715.20;;;;;;5136651;27;20012;-74
2021/08/09 00:32:18;;;;;;;29.17;11.13;;;665.80;1715.20;;;;;;5125590;27;20054;-73
2021/08/09 00:34:45;;;;;;;18.80;10.73;;;665.80;1740.80;;;;;;5134767;27;20050;-75
2021/08/09 00:37:13;;;;;;;23.90;10.90;;;665.70;1740.80;;;;;;5135620;27;20114;-78
2021/08/09 00:39:39;;;;;;;20.30;11.10;;;665.70;1740.80;;;;;;5136127;27;20491;-82
2021/08/09 00:42:09;;;;;;;26.13;11.20;;;665.60;1766.40;;;;;;5135591;27;20031;-81
2021/08/09 00:44:37;;;;;;;19.50;11.80;;;665.70;1766.40;;;;;;5134413;27;20027;-80
2021/08/09 00:47:03;;;;;;;21.60;11.48;;;666.00;1740.80;;;;;;5136583;27;20011;-82
2021/08/09 00:49:29;;;;;;;19.83;11.52;;;666.20;1715.20;;;;;;5125079;27;20022;-80
2021/08/09 00:51:56;;;;;;;22.05;12.80;;;666.30;1715.20;;;;;;5140224;27;20020;-80
2021/08/09 00:54:25;;;;;;;20.27;11.55;;;666.30;1715.20;;;;;;5119519;27;20501;-82
2021/08/09 00:56:50;;;;;;;19.67;11.45;;;666.30;1740.80;;;;;;5114447;27;20035;-75
2021/08/09 00:59:16;;;;;;;21.58;12.10;;;666.50;1715.20;;;;;;5111228;27;20387;-81
2021/08/09 01:01:42;;;;;;;22.42;11.85;;;666.30;1740.80;;;;;;5130448;27;20046;-75
2021/08/09 01:04:10;;;;;;;21.15;11.50;;;666.50;1715.20;;;;;;5121581;27;20032;-79
2021/08/09 01:06:37;;;;;;;17.85;11.10;;;666.50;1715.20;;;;;;5129081;27;20035;-79
2021/08/09 01:09:16;;;;;;;27.25;11.93;;;691.20;1715.20;;;;;;5127621;27;20026;-80
2021/08/09 01:11:57;;;;;;;21.30;11.52;;;691.20;1715.20;;;;;;5131270;27;20029;-76
2021/08/09 01:14:46;;;;;;;22.10;13.70;;;691.30;1689.60;;;;;;5114230;27;20036;-77
2021/08/09 01:17:13;;;;;;;24.88;12.95;;;691.20;1715.20;;;;;;5130130;27;20038;-75
2021/08/09 01:19:39;;;;;;;24.02;12.30;;;691.20;1715.20;;;;;;5128471;27;20539;-80
2021/08/09 01:22:30;;;;;;;21.00;12.38;;;691.20;1715.20;;;;;;5127343;27;20109;-78
2021/08/09 01:25:27;;;;;;;17.70;11.70;;;691.20;1740.80;;;;;;5130718;27;20023;-81
2021/08/09 01:27:54;;;;;;;18.85;12.77;;;666.50;1740.80;;;;;;5134287;27;20048;-83
2021/08/09 01:30:21;;;;;;;22.73;13.13;;;691.20;1740.80;;;;;;5135868;27;20022;-81
2021/08/09 01:32:48;;;;;;;21.65;13.25;;;666.50;1740.80;;;;;;5129888;27;20023;-76
2021/08/09 01:35:15;;;;;;;19.63;12.27;;;666.50;1766.40;;;;;;5131049;27;20051;-75
2021/08/09 01:37:45;;;;;;;21.65;12.50;;;666.50;1766.40;;;;;;5126628;27;20081;-83
2021/08/09 01:40:13;;;;;;;19.67;13.23;;;666.50;1766.40;;;;;;5131905;27;20023;-81
2021/08/09 01:42:43;;;;;;;21.40;12.63;;;666.30;1792.00;;;;;;5131578;27;20146;-79
2021/08/09 01:45:09;;;;;;;20.63;12.73;;;666.30;1792.00;;;;;;5128898;27;20019;-81
2021/08/09 01:47:36;;;;;;;30.98;13.30;;;666.30;1792.00;;;;;;5130560;27;20518;-82
2021/08/09 01:50:03;;;;;;;20.70;12.93;;;666.30;1792.00;;;;;;5132881;27;20025;-75
2021/08/09 01:52:30;;;;;;;22.15;12.75;;;666.20;1792.00;;;;;;5135265;27;20025;-77
2021/08/09 01:54:57;;;;;;;24.60;13.20;;;666.30;1792.00;;;;;;5134892;27;20023;-75
2021/08/09 01:57:27;;;;;;;21.65;12.18;;;666.30;1792.00;;;;;;5135067;27;20026;-79
2021/08/09 01:59:53;;;;;;;21.13;12.90;;;666.30;1817.60;;;;;;5135170;27;20080;-75
2021/08/09 02:02:28;;;;;;;24.52;13.68;;;666.20;1817.60;;;;;;5135189;27;20020;-80
2021/08/09 02:04:54;;;;;;;20.17;13.73;;;666.20;1843.20;;;;;;5134761;27;20110;-75
2021/08/09 02:07:20;;;;;;;22.08;13.20;;;666.20;1843.20;;;;;;5134485;27;20051;-76
2021/08/09 02:09:46;;;;;;;22.27;13.43;;;666.00;1843.20;;;;;;5134770;27;20031;-78
2021/08/09 02:12:13;;;;;;;21.38;13.07;;;666.10;1843.20;;;;;;5134884;27;20087;-79
2021/08/09 02:14:43;;;;;;;21.80;12.50;;;666.20;1843.20;;;;;;5134710;27;20026;-82
2021/08/09 02:17:20;;;;;;;23.48;13.88;;;666.10;1843.20;;;;;;5126202;27;20077;-77
2021/08/09 02:19:51;;;;;;;21.02;12.82;;;666.10;1868.80;;;;;;5137109;27;20479;-77
2021/08/09 02:22:42;;;;;;;23.88;13.93;;;666.00;1868.80;;;;;;5140936;27;20047;-82
2021/08/09 02:25:19;;;;;;;20.20;13.18;;;666.00;1894.40;;;;;;5118195;27;20049;-76
2021/08/09 02:27:53;;;;;;;22.50;13.70;;;666.00;1894.40;;;;;;5134292;27;20031;-80
2021/08/09 02:30:22;;;;;;;22.77;13.43;;;665.70;1920.00;;;;;;5115747;27;20019;-75
2021/08/09 02:32:51;;;;;;;19.52;12.02;;;665.80;1920.00;;;;;;5134234;27;20049;-77
2021/08/09 02:35:19;;;;;;;19.58;13.18;;;665.80;1945.60;;;;;;5134258;27;20022;-81
2021/08/09 02:37:46;;;;;;;18.80;12.25;;;665.90;1920.00;;;;;;5133962;27;20057;-80
2021/08/09 02:40:14;;;;;;;17.95;13.10;;;665.90;1920.00;;;;;;5134859;27;20111;-81
2021/08/09 02:42:40;;;;;;;25.20;14.10;;;666.00;1920.00;;;;;;5134535;27;20019;-81
2021/08/09 02:45:07;;;;;;;20.50;12.77;;;666.00;1920.00;;;;;;5134424;27;20483;-84
2021/08/09 02:47:37;;;;;;;22.77;14.20;;;665.90;1920.00;;;;;;5134317;27;20369;-77
2021/08/09 02:50:05;;;;;;;25.15;14.70;;;666.00;1920.00;;;;;;5134156;27;20533;-81
2021/08/09 02:52:32;;;;;;;20.98;15.23;;;666.00;1920.00;;;;;;5134138;27;20023;-84
2021/08/09 02:54:59;;;;;;;20.60;13.30;;;666.00;1945.60;;;;;;5134504;27;20152;-84
2021/08/09 02:57:28;;;;;;;18.88;12.98;;;666.00;1971.20;;;;;;5134057;27;20054;-84
2021/08/09 02:59:54;;;;;;;22.52;13.48;;;665.80;1971.20;;;;;;5134405;27;20019;-82
2021/08/09 03:02:22;;;;;;;27.67;14.10;;;665.60;1996.80;;;;;;5132511;27;20019;-84
2021/08/09 03:04:49;;;;;;;20.25;13.05;;;665.60;2022.40;;;;;;5128845;27;20027;-84
2021/08/09 03:07:16;;;;;;;21.80;13.25;;;665.60;1996.80;;;;;;5109447;28;20370;-76
2021/08/09 03:09:42;;;;;;;26.30;14.52;;;640.70;2022.40;;;;;;5134273;27;20115;-81
2021/08/09 03:12:11;;;;;;;17.30;12.93;;;640.30;2022.40;;;;;;5133838;28;20092;-81
2021/08/09 03:14:36;;;;;;;24.35;13.55;;;640.70;2022.40;;;;;;5134101;27;20451;-82
2021/08/09 03:17:05;;;;;;;21.10;12.68;;;640.70;2022.40;;;;;;5134064;28;20102;-77
2021/08/09 03:19:31;;;;;;;20.48;13.77;;;640.70;2022.40;;;;;;5133748;27;20357;-80
2021/08/09 03:21:59;;;;;;;17.98;12.75;;;640.50;2048.00;;;;;;5143401;27;20098;-83
2021/08/09 03:24:28;;;;;;;22.70;13.23;;;640.60;2048.00;;;;;;5119034;28;20495;-78
2021/08/09 03:26:54;;;;;;;20.63;12.25;;;640.50;2048.00;;;;;;5115134;28;20054;-75
2021/08/09 03:29:20;;;;;;;18.50;12.90;;;640.50;2048.00;;;;;;5128273;28;20061;-82
2021/08/09 03:31:46;;;;;;;23.00;12.77;;;640.40;2073.60;;;;;;5113291;28;20031;-76
2021/08/09 03:34:13;;;;;;;19.73;13.38;;;615.30;2099.20;;;;;;5118522;27;20030;-82
2021/08/09 03:36:42;;;;;;;19.85;11.95;;;615.30;2124.80;;;;;;5115729;28;20388;-77
2021/08/09 03:39:08;;;;;;;23.45;13.18;;;615.20;2124.80;;;;;;5101030;28;20023;-82
2021/08/09 03:41:35;;;;;;;20.00;12.32;;;615.30;2099.20;;;;;;5126086;27;20476;-82
2021/08/09 03:44:01;;;;;;;20.65;12.88;;;615.20;2099.20;;;;;;5119487;28;20032;-83
2021/08/09 03:46:26;;;;;;;20.80;11.13;;;615.00;2124.80;;;;;;5094935;28;20023;-77
2021/08/09 03:48:52;;;;;;;19.23;10.68;;;614.90;2124.80;;;;;;5116830;28;20027;-76
2021/08/09 03:51:18;;;;;;;19.55;10.27;;;614.70;2124.80;;;;;;5126985;27;20030;-82
2021/08/09 03:53:43;;;;;;;13.30;9.15;;;614.80;2099.20;;;;;;5130821;27;20111;-77
2021/08/09 03:56:09;;;;;;;10.73;8.02;;;614.90;2099.20;;;;;;5123077;27;20219;-82
2021/08/09 03:58:35;;;;;;;12.63;7.28;;;614.80;2124.80;;;;;;5120363;27;20038;-82
2021/08/09 04:01:01;;;;;;;11.00;7.20;;;614.90;2124.80;;;;;;5120779;27;20026;-81
2021/08/09 04:03:27;;;;;;;9.50;6.65;;;615.00;2124.80;;;;;;5126491;27;20031;-76
2021/08/09 04:05:52;;;;;;;11.15;6.68;;;615.00;2150.40;;;;;;5124395;27;20019;-83
2021/08/09 04:08:18;;;;;;;10.10;7.15;;;614.90;2176.00;;;;;;5116663;28;20077;-79
2021/08/09 04:10:44;;;;;;;10.13;6.60;;;614.80;2201.60;;;;;;5119357;27;20047;-82
2021/08/09 04:13:09;;;;;;;11.02;6.57;;;614.90;2201.60;;;;;;5116984;28;20122;-82
2021/08/09 04:15:35;;;;;;;10.73;7.25;;;614.80;2227.20;;;;;;5124834;27;20088;-82
2021/08/09 04:18:01;;;;;;;10.25;6.85;;;614.80;2252.80;;;;;;5125694;27;20031;-81
2021/08/09 04:20:26;;;;;;;12.45;6.72;;;614.80;2252.80;;;;;;5122554;27;20471;-82
2021/08/09 04:22:52;;;;;;;16.92;6.65;;;614.80;2278.40;;;;;;5126610;27;20047;-83
2021/08/09 04:25:18;;;;;;;11.50;6.28;;;614.70;2304.00;;;;;;5137401;27;20019;-82
2021/08/09 04:27:43;;;;;;;15.50;6.57;;;614.70;2304.00;;;;;;5137209;27;20160;-79
2021/08/09 04:30:10;;;;;;;9.55;6.85;;;614.70;2304.00;;;;;;5136720;27;20147;-81
2021/08/09 04:32:40;;;;;;;10.68;6.60;;;614.70;2329.60;;;;;;5137002;27;20019;-82
2021/08/09 04:35:11;;;;;;;13.13;6.43;;;614.80;2304.00;;;;;;5157605;27;20018;-78
2021/08/09 04:37:38;;;;;;;11.93;6.38;;;614.80;2329.60;;;;;;5157699;27;20027;-80
2021/08/09 04:40:05;;;;;;;11.65;6.72;;;614.90;2304.00;;;;;;5157474;27;20025;-84
2021/08/09 04:42:31;;;;;;;10.98;6.07;;;614.90;2304.00;;;;;;5157654;27;20027;-84
2021/08/09 04:44:57;;;;;;;12.00;6.53;;;614.90;2329.60;;;;;;5157869;27;20564;-81
2021/08/09 04:47:23;;;;;;;11.80;6.40;;;615.10;2304.00;;;;;;5157697;27;20029;-79
2021/08/09 04:49:49;;;;;;;12.60;6.47;;;615.10;2304.00;;;;;;5157294;27;20098;-79
2021/08/09 04:52:16;;;;;;;12.40;5.63;;;615.20;2304.00;;;;;;5157636;27;20030;-77
2021/08/09 04:54:42;;;;;;;8.57;6.07;;;615.10;2329.60;;;;;;5138486;27;20025;-77
2021/08/09 04:57:08;;;;;;;10.75;6.10;;;615.20;2304.00;;;;;;5156482;27;20023;-80
2021/08/09 04:59:34;;;;;;;12.85;6.75;;;615.20;2304.00;;;;;;5157270;27;20026;-81
2021/08/09 05:02:00;;;;;;;10.77;7.30;;;615.30;2304.00;;;;;;5157207;27;20079;-76
2021/08/09 05:04:26;;;;;;;11.80;6.38;;;615.30;2304.00;;;;;;5157233;27;20519;-80
2021/08/09 05:06:51;;;;;;;13.05;6.05;;;615.30;2304.00;;;;;;5156924;27;20027;-78
2021/08/09 05:09:17;;;;;;;9.88;6.28;;;640.00;2304.00;;;;;;5156980;27;20046;-80
2021/08/09 05:11:43;;;;;;;12.13;5.93;;;640.10;2304.00;;;;;;5157040;27;20031;-82
2021/08/09 05:14:09;;;;;;;12.15;5.47;;;640.20;2278.40;;;;;;5156625;27;20030;-82
2021/08/09 05:16:37;;;;;;;18.23;6.80;;;640.10;2278.40;;;;;;5156603;27;20063;-79
2021/08/09 05:19:03;;;;;;;10.70;6.85;;;640.20;2278.40;;;;;;5137857;27;20372;-78
2021/08/09 05:21:30;;;;;;;12.00;6.80;;;640.30;2278.40;;;;;;5137261;27;20019;-76
2021/08/09 05:23:58;;;;;;;12.00;5.60;;;640.30;2278.40;;;;;;5155833;27;20039;-74
2021/08/09 05:26:24;;;;;;;11.48;6.22;;;640.40;2252.80;;;;;;5156158;27;20497;-77
2021/08/09 05:28:50;;;;;;;14.07;6.03;;;640.50;2252.80;;;;;;5155806;27;20026;-76
2021/08/09 05:31:16;;;;;;;13.40;7.38;;;640.50;2252.80;;;;;;5156119;27;20051;-77
2021/08/09 05:33:42;;;;;;;15.63;6.50;;;640.50;2252.80;;;;;;5155912;27;20041;-75
2021/08/09 05:36:08;;;;;;;10.15;6.32;;;640.60;2227.20;;;;;;5155829;27;20015;-76
2021/08/09 05:38:34;;;;;;;14.23;7.47;;;640.60;2252.80;;;;;;5155594;27;20107;-76
2021/08/09 05:41:02;;;;;;;15.75;8.60;;;640.70;2227.20;;;;;;5119562;27;20050;-78
2021/08/09 05:43:28;;;;;;;12.15;6.90;;;640.70;2227.20;;;;;;5155771;27;20026;-77
2021/08/09 05:45:54;;;;;;;12.77;8.73;;;640.70;2227.20;;;;;;5155745;27;20389;-76
2021/08/09 05:48:19;;;;;;;10.43;7.28;;;640.90;2201.60;;;;;;5155590;27;20023;-77
2021/08/09 05:50:45;;;;;;;13.13;7.72;;;640.90;2227.20;;;;;;5155117;27;20026;-77
2021/08/09 05:53:11;;;;;;;13.48;9.85;;;665.60;2227.20;;;;;;5155812;27;20050;-77
2021/08/09 05:55:37;;;;;;;15.07;9.85;;;665.70;2201.60;;;;;;5137046;27;20015;-74
2021/08/09 05:58:03;;;;;;;13.02;6.75;;;665.90;2201.60;;;;;;5136306;27;20046;-75
2021/08/09 06:00:28;;;;;;;12.90;7.35;;;665.90;2176.00;;;;;;5155342;27;20043;-77
2021/08/09 06:02:54;;;;;;;11.85;7.18;;;666.00;2176.00;;;;;;5155242;27;20524;-76
2021/08/09 06:05:20;;;;;;;13.38;6.85;;;666.00;2176.00;;;;;;5155524;27;20018;-76
2021/08/09 06:07:45;;;;;;;16.30;7.53;;;666.20;2150.40;;;;;;5155168;27;20022;-74
2021/08/09 06:10:11;;;;;;;13.85;6.75;;;666.20;2150.40;;;;;;5155221;27;20147;-77
2021/08/09 06:12:38;;;;;;;19.20;7.93;;;666.20;2124.80;;;;;;5154705;27;20102;-78
2021/08/09 06:15:07;;;;;;;13.68;8.82;;;666.30;2124.80;;;;;;5141669;27;20019;-77
2021/08/09 06:17:34;;;;;;;12.70;7.70;;;666.50;2124.80;;;;;;5151188;27;20030;-76
2021/08/09 06:20:01;;;;;;;14.32;7.47;;;666.50;2099.20;;;;;;5144972;27;20094;-74
2021/08/09 06:22:26;;;;;;;8.90;6.65;;;666.50;2099.20;;;;;;5139927;27;20121;-76
2021/08/09 06:24:52;;;;;;;8.98;6.28;;;666.50;2099.20;;;;;;5139959;27;20468;-78
2021/08/09 06:27:18;;;;;;;10.02;6.35;;;666.50;2124.80;;;;;;5154987;27;20492;-78
2021/08/09 06:29:44;;;;;;;12.43;6.82;;;691.20;2099.20;;;;;;5135850;27;20030;-75
2021/08/09 06:32:10;;;;;;;12.98;7.95;;;691.20;2124.80;;;;;;5154720;27;20075;-77
2021/08/09 06:34:35;;;;;;;14.75;6.25;;;691.30;2150.40;;;;;;5154315;27;20026;-78
2021/08/09 06:37:01;;;;;;;12.68;5.82;;;691.40;2099.20;;;;;;5153819;27;20042;-77
2021/08/09 06:39:27;;;;;;;10.40;6.22;;;691.40;2124.80;;;;;;5151191;27;20042;-74
2021/08/09 06:41:53;;;;;;;14.35;5.90;;;691.40;2124.80;;;;;;5153944;27;20029;-75
2021/08/09 06:44:19;;;;;;;9.02;6.10;;;691.50;2099.20;;;;;;5153823;27;20027;-75
2021/08/09 06:46:45;;;;;;;15.75;5.65;;;691.60;2099.20;;;;;;5153882;27;20018;-75
2021/08/09 06:49:11;;;;;;;13.77;7.82;;;691.50;2099.20;;;;;;5153836;27;20075;-76
2021/08/09 06:51:36;;;;;;;14.32;6.88;;;691.60;2099.20;;;;;;5153769;27;20101;-75
2021/08/09 06:54:02;;;;;;;9.07;6.05;;;691.80;2048.00;;;;;;5135319;27;20023;-75
2021/08/09 06:56:28;;;;;;;11.88;6.43;;;691.90;2048.00;;;;;;5153723;27;20018;-76
2021/08/09 06:58:54;;;;;;;13.57;6.35;;;691.90;2048.00;;;;;;5153674;27;20031;-74
2021/08/09 07:01:20;;;;;;;9.38;6.22;;;692.00;2022.40;;;;;;5153694;27;20011;-74
2021/08/09 07:03:46;;;;;;;12.80;7.25;;;692.10;2048.00;;;;;;5153745;27;20074;-77
2021/08/09 07:06:22;;;;;;;12.65;6.60;;;716.90;2048.00;;;;;;5154047;27;20007;-77
2021/08/09 07:08:49;;;;;;;11.15;6.00;;;716.90;2048.00;;;;;;5153758;27;20047;-77
2021/08/09 07:11:16;;;;;;;14.75;6.18;;;717.00;2022.40;;;;;;5153019;27;20435;-76
2021/08/09 07:13:42;;;;;;;9.07;6.07;;;717.20;2048.00;;;;;;5153028;27;20045;-76
2021/08/09 07:16:08;;;;;;;10.27;6.40;;;717.20;1996.80;;;;;;5152279;27;20022;-78
2021/08/09 07:18:34;;;;;;;9.05;5.63;;;717.40;1971.20;;;;;;5152853;27;20481;-75
2021/08/09 07:21:00;;;;;;;12.70;5.45;;;717.50;1971.20;;;;;;5153464;27;20022;-77
2021/08/09 07:23:26;;;;;;;8.30;5.30;;;717.50;1920.00;;;;;;5153719;27;20135;-77
2021/08/09 07:25:52;;;;;;;13.15;6.07;;;717.70;1920.00;;;;;;5156660;27;20148;-74
2021/08/09 07:28:18;;;;;;;11.23;6.43;;;742.40;1945.60;;;;;;5158418;27;20018;-77
2021/08/09 07:30:44;;;;;;;11.82;6.47;;;742.40;1920.00;;;;;;5158371;27;20023;-77
2021/08/09 07:33:10;;;;;;;11.25;6.10;;;742.50;1945.60;;;;;;5154274;27;20015;-78
2021/08/09 07:35:37;;;;;;;8.52;6.18;;;742.70;1945.60;;;;;;5155725;27;20027;-76
2021/08/09 07:38:03;;;;;;;12.45;6.78;;;742.80;1894.40;;;;;;5132595;27;20384;-75
2021/08/09 07:40:29;;;;;;;8.68;5.38;;;742.80;1920.00;;;;;;5150881;27;20094;-75
2021/08/09 07:42:54;;;;;;;12.85;6.25;;;742.90;1894.40;;;;;;5153036;27;20063;-75
2021/08/09 07:45:21;;;;;;;12.50;6.03;;;742.90;1894.40;;;;;;5154745;27;20015;-76
2021/08/09 07:47:52;;;;;;;10.57;6.10;;;743.10;1868.80;;;;;;5157714;27;20035;-74
2021/08/09 07:50:21;;;;;;;15.98;6.40;;;743.10;1817.60;;;;;;5157152;27;20026;-76
2021/08/09 07:52:47;;;;;;;9.00;6.68;;;743.20;1843.20;;;;;;5139064;27;20030;-77
2021/08/09 07:55:13;;;;;;;9.85;5.65;;;743.30;1843.20;;;;;;5157546;27;20372;-78
2021/08/09 07:57:39;;;;;;;8.93;5.82;;;743.30;1843.20;;;;;;5138927;27;20035;-77
2021/08/09 08:00:06;;;;;;;9.45;6.93;;;768.10;1817.60;;;;;;5157953;27;20026;-77
2021/08/09 08:02:32;;;;;;;9.50;6.00;;;768.10;1843.20;;;;;;5139239;27;20547;-75
2021/08/09 08:04:57;;;;;;;12.70;6.03;;;768.20;1817.60;;;;;;5157770;27;20023;-77
2021/08/09 08:07:23;;;;;;;7.15;5.55;;;768.20;1792.00;;;;;;5151648;27;20022;-76
2021/08/09 08:09:49;;;;;;;9.88;6.22;;;768.30;1792.00;;;;;;5157206;27;20502;-76
2021/08/09 08:12:15;;;;;;;7.22;5.13;;;768.30;1766.40;;;;;;5136653;27;20041;-76
2021/08/09 08:14:41;;;;;;;12.77;6.55;;;768.40;1766.40;;;;;;5153508;27;20035;-78
2021/08/09 08:17:07;;;;;;;10.27;5.43;;;768.40;1792.00;;;;;;5154437;27;20535;-75
2021/08/09 08:19:33;;;;;;;9.73;5.70;;;768.40;1792.00;;;;;;5157332;27;20483;-75
2021/08/09 08:21:59;;;;;;;9.35;6.30;;;768.40;1792.00;;;;;;5156650;27;20027;-75
2021/08/09 08:24:24;;;;;;;8.07;5.90;;;768.50;1766.40;;;;;;5142541;27;20035;-76
2021/08/09 08:26:50;;;;;;;8.02;5.47;;;768.50;1715.20;;;;;;5136252;27;20019;-75
2021/08/09 08:29:16;;;;;;;9.38;5.32;;;768.50;1740.80;;;;;;5156956;27;20032;-75
2021/08/09 08:31:42;;;;;;;8.77;5.40;;;768.60;1792.00;;;;;;5157196;27;20018;-75
2021/08/09 08:34:08;;;;;;;9.27;5.28;;;768.60;1740.80;;;;;;5157121;27;20023;-75
2021/08/09 08:36:34;;;;;;;8.40;5.47;;;768.70;1740.80;;;;;;5138022;27;20023;-75
2021/08/09 08:39:00;;;;;;;10.98;5.88;;;768.70;1740.80;;;;;;5156699;27;20106;-77
2021/08/09 08:41:26;;;;;;;8.88;5.30;;;768.80;1740.80;;;;;;5156849;27;20022;-78
2021/08/09 08:43:52;;;;;;;9.80;5.05;;;768.80;1740.80;;;;;;5156723;27;20523;-76
2021/08/09 08:46:19;;;;;;;8.63;5.05;;;768.80;1740.80;;;;;;5138490;27;20023;-77
2021/08/09 08:48:46;;;;;;;9.30;5.25;;;768.90;1715.20;;;;;;5156537;27;20027;-75
2021/08/09 08:51:12;;;;;;;8.27;5.25;;;768.80;1740.80;;;;;;5156576;27;20014;-75
2021/08/09 08:53:38;;;;;;;8.15;5.78;;;768.90;1715.20;;;;;;5156604;27;20030;-74
2021/08/09 08:56:08;;;;;;;8.18;5.15;;;768.90;1715.20;;;;;;5156260;27;20127;-75
2021/08/09 08:58:34;;;;;;;7.93;5.15;;;793.70;1740.80;;;;;;5156498;27;20055;-76
2021/08/09 09:01:00;;;;;;;11.27;5.68;;;793.60;1766.40;;;;;;5156636;27;20026;-78
2021/08/09 09:03:28;;;;;;;12.63;5.38;;;793.70;1766.40;;;;;;5138064;27;20026;-76
2021/08/09 09:06:00;;;;;;;9.63;5.03;;;793.70;1715.20;;;;;;5152385;27;20068;-74
2021/08/09 09:08:46;;;;;;;11.25;5.25;;;793.80;1766.40;;;;;;5147675;27;20022;-73
2021/08/09 09:11:11;;;;;;;11.52;5.20;;;793.70;1817.60;;;;;;5153289;27;20033;-74
2021/08/09 09:13:53;;;;;;;7.43;5.18;;;793.70;1817.60;;;;;;5155758;27;20388;-74
2021/08/09 09:16:19;;;;;;;6.90;4.60;;;793.70;1817.60;;;;;;5154503;27;20106;-74
2021/08/09 09:18:55;;;;;;;6.50;5.00;;;793.70;1817.60;;;;;;5155674;27;20105;-74
2021/08/09 09:21:31;;;;;;;6.53;4.80;;;793.70;1817.60;;;;;;5155566;27;20019;-74
2021/08/09 09:24:18;;;;;;;9.02;4.82;;;793.70;1792.00;;;;;;5153513;27;20050;-74
2021/08/09 09:26:56;;;;;;;8.38;4.72;;;793.70;1817.60;;;;;;5154861;27;20040;-74
2021/08/09 09:29:23;;;;;;;6.65;5.20;;;793.70;1792.00;;;;;;5156072;27;20019;-74
2021/08/09 09:31:50;;;;;;;7.20;4.70;;;793.70;1766.40;;;;;;5153134;27;20019;-72
2021/08/09 09:34:17;;;;;;;10.57;4.57;;;794.00;1766.40;;;;;;5156258;27;20018;-72
2021/08/09 09:36:45;;;;;;;6.55;4.63;;;794.00;1766.40;;;;;;5150147;27;20015;-73
2021/08/09 09:39:34;;;;;;;7.55;4.57;;;794.20;1715.20;;;;;;5134251;27;20083;-73
2021/08/09 09:42:42;;;;;;;6.20;4.75;;;794.40;1715.20;;;;;;5155822;27;20383;-71
2021/08/09 09:45:59;;;;;;;5.50;4.75;;;794.50;1689.60;;;;;;5140411;27;20039;-73
2021/08/09 09:48:40;;;;;;;8.38;4.85;;;819.30;1715.20;;;;;;5107223;28;20130;-72
2021/08/09 09:51:09;;;;;;;8.25;4.80;;;819.30;1689.60;;;;;;5142741;27;20027;-73
2021/08/09 09:54:15;;;;;;;12.18;5.50;;;819.30;1664.00;;;;;;5150551;27;20023;-73
2021/08/09 09:57:21;;;;;;;7.13;4.75;;;819.60;1638.40;;;;;;5105856;28;20038;-73
2021/08/09 09:59:48;;;;;;;9.18;4.50;;;819.80;1638.40;;;;;;5094920;28;20068;-73
2021/08/09 10:02:14;;;;;;;8.50;4.78;;;819.80;1612.80;;;;;;5111332;28;20242;-73
2021/08/09 10:04:40;;;;;;;9.10;4.72;;;819.90;1587.20;;;;;;5094370;28;20553;-73
2021/08/09 10:07:08;;;;;;;7.32;4.60;;;820.00;1587.20;;;;;;5106819;28;20104;-73
2021/08/09 10:09:35;;;;;;;5.45;4.63;;;820.10;1561.60;;;;;;5111602;28;20028;-77
2021/08/09 10:12:02;;;;;;;7.78;4.35;;;844.80;1587.20;;;;;;5094672;28;20031;-77
2021/08/09 10:14:28;;;;;;;8.80;5.18;;;845.00;1612.80;;;;;;5111405;28;20035;-78
2021/08/09 10:16:54;;;;;;;6.63;4.80;;;844.90;1638.40;;;;;;5111764;28;20027;-79
2021/08/09 10:19:20;;;;;;;7.57;4.90;;;845.10;1612.80;;;;;;5094343;28;20096;-77
2021/08/09 10:21:46;;;;;;;9.23;4.65;;;845.20;1612.80;;;;;;5113804;27;20015;-79
2021/08/09 10:24:38;;;;;;;8.30;4.88;;;845.40;1561.60;;;;;;5111305;28;20054;-76
2021/08/09 10:27:03;;;;;;;7.85;4.43;;;845.50;1587.20;;;;;;5111369;28;20027;-78
2021/08/09 10:29:29;;;;;;;10.88;5.10;;;845.50;1612.80;;;;;;5111759;28;20064;-77
2021/08/09 10:32:19;;;;;;;7.15;4.85;;;845.70;1612.80;;;;;;5111618;28;20481;-77
2021/08/09 10:34:45;;;;;;;8.10;4.40;;;845.70;1561.60;;;;;;5126607;27;20384;-77
2021/08/09 10:37:23;;;;;;;8.90;4.75;;;845.70;1587.20;;;;;;5115567;27;20023;-74
2021/08/09 10:39:51;;;;;;;9.07;4.75;;;870.40;1561.60;;;;;;5132674;27;20031;-75
2021/08/09 10:42:30;;;;;;;6.60;4.60;;;870.50;1561.60;;;;;;5115126;27;20026;-74
2021/08/09 10:44:56;;;;;;;7.07;4.90;;;870.70;1561.60;;;;;;5130997;27;20407;-77
2021/08/09 10:47:49;;;;;;;10.85;5.13;;;870.70;1536.00;;;;;;5115354;27;20026;-77
2021/08/09 10:50:29;;;;;;;5.25;4.15;;;870.60;1561.60;;;;;;5135516;27;20029;-76
2021/08/09 10:52:58;;;;;;;14.25;4.85;;;870.70;1561.60;;;;;;5154988;27;20070;-75
2021/08/09 10:55:30;;;;;;;10.90;5.25;;;870.70;1510.40;;;;;;5135900;27;20031;-75
2021/08/09 10:58:05;;;;;;;7.55;4.88;;;870.70;1536.00;;;;;;5115493;27;20711;-75
2021/08/09 11:00:40;;;;;;;7.88;5.07;;;870.70;1510.40;;;;;;5127243;27;20038;-77
2021/08/09 11:03:11;;;;;;;11.45;4.90;;;870.80;1484.80;;;;;;5132016;27;20036;-77
2021/08/09 11:05:37;;;;;;;6.15;4.65;;;870.80;1459.20;;;;;;5130437;27;20031;-77
2021/08/09 11:08:18;;;;;;;7.68;4.72;;;870.90;1459.20;;;;;;5133149;27;20483;-77
2021/08/09 11:10:57;;;;;;;7.88;4.70;;;871.10;1459.20;;;;;;5132970;27;20413;-78
2021/08/09 11:13:23;;;;;;;6.88;4.80;;;871.10;1433.60;;;;;;5132929;28;20072;-78
2021/08/09 11:15:54;;;;;;;7.53;4.75;;;871.10;1459.20;;;;;;5114734;28;20030;-80
2021/08/09 11:18:20;;;;;;;8.90;4.65;;;871.30;1408.00;;;;;;5133166;28;20050;-79
2021/08/09 11:20:46;;;;;;;8.88;4.38;;;896.00;1408.00;;;;;;5132968;27;20015;-77
2021/08/09 11:23:14;;;;;;;7.07;4.90;;;896.10;1459.20;;;;;;5133164;28;20070;-75
2021/08/09 11:25:45;;;;;;;11.82;4.88;;;871.30;1408.00;;;;;;5125951;28;20024;-75
2021/08/09 11:28:24;;;;;;;8.35;4.30;;;896.00;1382.40;;;;;;5116432;28;20062;-78
2021/08/09 11:30:51;;;;;;;6.68;4.90;;;896.10;1433.60;;;;;;5120718;28;20012;-77
2021/08/09 11:33:30;;;;;;;8.13;5.00;;;896.10;1382.40;;;;;;5131924;28;20019;-78
2021/08/09 11:36:09;;;;;;;6.72;4.60;;;896.10;1382.40;;;;;;5119868;28;20016;-77
2021/08/09 11:38:50;;;;;;;6.40;4.28;;;896.40;1382.40;;;;;;5130720;28;20035;-76
2021/08/09 11:41:17;;;;;;;6.68;4.75;;;896.60;1356.80;;;;;;5125805;28;20502;-75
2021/08/09 11:43:43;;;;;;;9.07;4.65;;;896.70;1331.20;;;;;;5106626;28;20027;-76
2021/08/09 11:46:13;;;;;;;7.32;4.20;;;896.70;1331.20;;;;;;5123366;28;20031;-75
2021/08/09 11:48:41;;;;;;;8.15;4.18;;;896.80;1356.80;;;;;;5130929;28;20491;-76
2021/08/09 11:51:10;;;;;;;6.35;4.53;;;896.60;1356.80;;;;;;5144818;27;20034;-73
2021/08/09 11:53:38;;;;;;;7.90;4.65;;;896.60;1356.80;;;;;;5154265;27;20519;-75
2021/08/09 11:56:18;;;;;;;9.95;4.13;;;896.70;1356.80;;;;;;5154101;27;20042;-76
2021/08/09 11:58:44;;;;;;;5.90;4.18;;;896.80;1331.20;;;;;;5154008;27;20027;-75
2021/08/09 12:01:33;;;;;;;6.93;4.10;;;896.80;1331.20;;;;;;5137687;27;20026;-75
2021/08/09 12:04:08;;;;;;;7.63;4.40;;;896.80;1331.20;;;;;;5127968;28;20028;-74
2021/08/09 12:06:44;;;;;;;5.88;4.70;;;896.70;1382.40;;;;;;5127386;28;20103;-75
2021/08/09 12:09:12;;;;;;;6.28;5.07;;;896.80;1331.20;;;;;;5132127;28;20033;-75
2021/08/09 12:11:39;;;;;;;6.90;4.30;;;896.90;1331.20;;;;;;5134183;27;20096;-75
2021/08/09 12:14:08;;;;;;;8.23;4.43;;;896.90;1305.60;;;;;;5134928;27;20052;-74
2021/08/09 12:16:54;;;;;;;9.38;4.75;;;921.70;1331.20;;;;;;5133870;27;20026;-74